createdAt,value
2018-05-15T00:01:39.614Z,16.72
2018-05-15T00:04:07.878Z,16.79
2018-05-15T00:06:36.157Z,16.77
2018-05-15T00:09:04.426Z,16.93
2018-05-15T00:11:32.705Z,16.90
2018-05-15T00:14:00.982Z,16.99
2018-05-15T00:16:29.258Z,16.98
2018-05-15T00:18:57.532Z,16.81
2018-05-15T00:21:25.815Z,16.76
2018-05-15T00:23:54.083Z,16.62
2018-05-15T00:26:22.381Z,16.75
2018-05-15T00:28:50.650Z,16.89
2018-05-15T00:31:18.920Z,16.68
2018-05-15T00:33:47.194Z,16.79
2018-05-15T00:36:15.467Z,16.74
2018-05-15T00:38:43.746Z,16.90
2018-05-15T00:41:12.014Z,16.83
2018-05-15T00:43:40.290Z,16.88
2018-05-15T00:46:08.564Z,16.53
2018-05-15T00:48:36.842Z,16.22
2018-05-15T00:51:05.106Z,15.97
2018-05-15T00:53:33.393Z,16.11
2018-05-15T00:56:01.661Z,16.10
2018-05-15T00:58:29.934Z,16.10
2018-05-15T01:00:58.202Z,16.16
2018-05-15T01:03:26.485Z,15.89
2018-05-15T01:05:54.753Z,15.96
2018-05-15T01:08:23.026Z,15.63
2018-05-15T01:10:51.297Z,15.63
2018-05-15T01:13:19.581Z,15.67
2018-05-15T01:15:47.858Z,15.57
2018-05-15T01:18:16.134Z,15.49
2018-05-15T01:20:44.410Z,15.71
2018-05-15T01:23:12.677Z,15.56
2018-05-15T01:25:40.961Z,15.50
2018-05-15T01:28:09.234Z,15.35
2018-05-15T01:30:37.514Z,15.19
2018-05-15T01:33:05.787Z,15.31
2018-05-15T01:35:34.062Z,15.34
2018-05-15T01:38:02.334Z,15.58
2018-05-15T01:40:30.615Z,15.60
2018-05-15T01:42:58.885Z,15.54
2018-05-15T01:45:27.162Z,15.53
2018-05-15T01:47:55.429Z,15.50
2018-05-15T01:50:23.706Z,15.47
2018-05-15T01:52:51.979Z,15.28
2018-05-15T01:55:20.251Z,15.08
2018-05-15T01:57:48.522Z,15.14
2018-05-15T02:00:16.827Z,14.79
2018-05-15T02:02:45.098Z,15.06
2018-05-15T02:05:13.370Z,15.00
2018-05-15T02:07:41.645Z,14.95
2018-05-15T02:10:09.917Z,15.14
2018-05-15T02:12:38.204Z,15.35
2018-05-15T02:15:06.473Z,15.25
2018-05-15T02:17:34.753Z,15.24
2018-05-15T02:20:03.022Z,14.97
2018-05-15T02:22:31.306Z,14.87
2018-05-15T02:24:59.582Z,14.87
2018-05-15T02:27:27.870Z,14.63
2018-05-15T02:29:56.142Z,14.69
2018-05-15T02:32:24.419Z,14.69
2018-05-15T02:34:52.691Z,14.93
2018-05-15T02:37:20.977Z,14.81
2018-05-15T02:39:49.249Z,14.97
2018-05-15T02:42:17.522Z,14.59
2018-05-15T02:44:45.786Z,14.62
2018-05-15T02:47:14.066Z,14.29
2018-05-15T02:49:42.342Z,14.20
2018-05-15T02:52:10.618Z,14.48
2018-05-15T02:54:38.900Z,14.52
2018-05-15T02:57:07.166Z,14.51
2018-05-15T02:59:35.450Z,14.45
2018-05-15T03:02:03.721Z,14.53
2018-05-15T03:04:32.003Z,14.27
2018-05-15T03:07:00.273Z,14.48
2018-05-15T03:09:28.550Z,14.37
2018-05-15T03:11:56.835Z,14.37
2018-05-15T03:14:25.114Z,14.40
2018-05-15T03:16:53.397Z,14.08
2018-05-15T03:19:21.681Z,14.36
2018-05-15T03:21:49.950Z,14.43
2018-05-15T03:24:18.236Z,14.50
2018-05-15T03:26:46.498Z,14.46
2018-05-15T03:29:14.782Z,14.37
2018-05-15T03:31:43.055Z,14.26
2018-05-15T03:34:11.330Z,14.27
2018-05-15T03:36:39.620Z,13.76
2018-05-15T03:39:07.920Z,14.03
2018-05-15T03:41:36.214Z,14.00
2018-05-15T03:44:04.486Z,14.08
2018-05-15T03:46:32.761Z,14.11
2018-05-15T03:49:01.038Z,14.02
2018-05-15T03:51:29.322Z,14.17
2018-05-15T03:53:57.594Z,14.09
2018-05-15T03:56:25.873Z,14.16
2018-05-15T03:58:54.153Z,14.09
2018-05-15T04:01:34.204Z,14.02
2018-05-15T04:04:14.272Z,13.95
2018-05-15T04:06:55.256Z,13.99
2018-05-15T04:09:23.532Z,14.02
2018-05-15T04:11:51.813Z,13.98
2018-05-15T04:14:20.082Z,13.83
2018-05-15T04:16:48.365Z,13.80
2018-05-15T04:19:16.637Z,13.79
2018-05-15T04:21:44.938Z,13.91
2018-05-15T04:24:13.198Z,13.79
2018-05-15T04:26:41.469Z,13.92
2018-05-15T04:29:09.757Z,13.57
2018-05-15T04:31:38.042Z,13.66
2018-05-15T04:34:06.330Z,13.91
2018-05-15T04:36:34.608Z,13.71
2018-05-15T04:39:02.878Z,13.42
2018-05-15T04:41:31.159Z,13.65
2018-05-15T04:43:59.497Z,13.45
2018-05-15T04:46:27.711Z,13.57
2018-05-15T04:48:55.994Z,13.50
2018-05-15T04:51:24.270Z,13.53
2018-05-15T04:53:52.555Z,13.83
2018-05-15T04:56:20.822Z,13.82
2018-05-15T04:58:49.102Z,13.80
2018-05-15T05:01:17.374Z,13.97
2018-05-15T05:03:45.658Z,13.89
2018-05-15T05:06:13.934Z,13.98
2018-05-15T05:08:42.220Z,14.15
2018-05-15T05:11:10.504Z,14.26
2018-05-15T05:13:38.778Z,14.34
2018-05-15T05:16:07.054Z,14.21
2018-05-15T05:18:35.330Z,14.26
2018-05-15T05:21:03.678Z,14.23
2018-05-15T05:23:31.886Z,14.52
2018-05-15T05:26:00.175Z,14.52
2018-05-15T05:28:28.482Z,14.64
2018-05-15T05:30:56.766Z,14.56
2018-05-15T05:33:25.071Z,14.57
2018-05-15T05:35:53.334Z,14.53
2018-05-15T05:38:21.616Z,14.54
2018-05-15T05:40:49.904Z,14.61
2018-05-15T05:43:18.986Z,14.72
2018-05-15T05:45:47.346Z,14.85
2018-05-15T05:48:15.625Z,15.05
2018-05-15T05:50:43.921Z,15.01
2018-05-15T05:53:12.207Z,15.08
2018-05-15T05:55:40.525Z,15.27
2018-05-15T05:58:08.783Z,15.18
2018-05-15T06:00:37.070Z,15.31
2018-05-15T06:03:05.390Z,15.15
2018-05-15T06:05:33.674Z,15.27
2018-05-15T06:08:01.967Z,15.32
2018-05-15T06:10:30.250Z,15.34
2018-05-15T06:12:58.533Z,15.71
2018-05-15T06:15:26.829Z,15.81
2018-05-15T06:17:55.122Z,16.04
2018-05-15T06:20:23.398Z,16.11
2018-05-15T06:22:51.691Z,15.96
2018-05-15T06:25:19.978Z,16.28
2018-05-15T06:27:48.262Z,16.58
2018-05-15T06:30:16.546Z,16.72
2018-05-15T06:32:44.829Z,16.75
2018-05-15T06:35:13.106Z,16.90
2018-05-15T06:37:41.401Z,16.63
2018-05-15T06:40:09.678Z,16.87
2018-05-15T06:42:38.063Z,17.09
2018-05-15T06:45:06.307Z,17.01
2018-05-15T06:47:34.585Z,17.02
2018-05-15T06:50:02.858Z,17.21
2018-05-15T06:52:31.135Z,17.45
2018-05-15T06:54:59.493Z,17.44
2018-05-15T06:57:27.694Z,17.52
2018-05-15T06:59:55.973Z,17.86
2018-05-15T07:02:24.246Z,17.84
2018-05-15T07:04:52.531Z,17.63
2018-05-15T07:07:20.801Z,17.50
2018-05-15T07:09:49.114Z,18.05
2018-05-15T07:12:17.389Z,18.33
2018-05-15T07:14:45.674Z,18.98
2018-05-15T07:17:13.949Z,18.32
2018-05-15T07:19:42.229Z,18.45
2018-05-15T07:22:10.505Z,19.14
2018-05-15T07:24:39.120Z,18.78
2018-05-15T07:27:07.386Z,19.49
2018-05-15T07:29:35.673Z,20.17
2018-05-15T07:32:04.042Z,19.86
2018-05-15T07:34:32.323Z,19.91
2018-05-15T07:37:00.597Z,21.87
2018-05-15T07:39:28.865Z,19.77
2018-05-15T07:41:57.142Z,20.41
2018-05-15T07:44:25.410Z,19.78
2018-05-15T07:46:53.694Z,19.75
2018-05-15T07:49:21.970Z,20.18
2018-05-15T07:51:50.247Z,20.64
2018-05-15T07:54:18.518Z,21.31
2018-05-15T07:56:46.806Z,22.27
2018-05-15T07:59:15.084Z,22.91
2018-05-15T08:01:43.369Z,22.16
2018-05-15T08:04:11.643Z,21.55
2018-05-15T08:06:39.944Z,21.43
2018-05-15T08:09:08.194Z,22.22
2018-05-15T08:11:36.474Z,23.20
2018-05-15T08:14:04.741Z,23.38
2018-05-15T08:16:33.018Z,22.92
2018-05-15T08:19:01.291Z,23.32
2018-05-15T08:21:29.573Z,22.84
2018-05-15T08:23:57.846Z,22.56
2018-05-15T08:26:26.109Z,22.96
2018-05-15T08:28:54.386Z,22.69
2018-05-15T08:31:22.654Z,22.76
2018-05-15T08:33:50.938Z,23.07
2018-05-15T08:36:19.210Z,23.95
2018-05-15T08:38:47.490Z,23.78
2018-05-15T08:41:15.762Z,24.51
2018-05-15T08:43:44.056Z,23.62
2018-05-15T08:46:12.327Z,23.81
2018-05-15T08:48:40.618Z,24.36
2018-05-15T08:51:08.887Z,24.75
2018-05-15T08:53:37.172Z,24.24
2018-05-15T08:56:05.448Z,24.55
2018-05-15T08:58:33.750Z,24.58
2018-05-15T09:01:02.026Z,24.37
2018-05-15T09:03:30.314Z,24.77
2018-05-15T09:05:58.582Z,24.84
2018-05-15T09:08:26.853Z,24.56
2018-05-15T09:10:55.159Z,24.70
2018-05-15T09:13:23.436Z,25.14
2018-05-15T09:15:51.721Z,25.89
2018-05-15T09:18:20.017Z,26.34
2018-05-15T09:20:48.274Z,26.66
2018-05-15T09:23:16.546Z,25.27
2018-05-15T09:25:44.831Z,25.17
2018-05-15T09:28:13.106Z,24.82
2018-05-15T09:30:41.386Z,25.68
2018-05-15T09:33:09.654Z,24.56
2018-05-15T09:35:37.950Z,25.74
2018-05-15T09:38:06.229Z,26.34
2018-05-15T09:40:34.518Z,24.97
2018-05-15T09:43:02.787Z,25.34
2018-05-15T09:45:31.081Z,25.43
2018-05-15T09:47:59.354Z,25.10
2018-05-15T09:50:27.633Z,24.13
2018-05-15T09:52:55.920Z,25.32
2018-05-15T09:55:24.183Z,24.89
2018-05-15T09:57:52.457Z,24.89
2018-05-15T10:00:26.358Z,24.87
2018-05-15T10:02:54.643Z,25.00
2018-05-15T10:05:22.910Z,25.04
2018-05-15T10:07:51.202Z,24.91
2018-05-15T10:10:19.462Z,24.49
2018-05-15T10:12:47.747Z,25.42
2018-05-15T10:15:16.066Z,25.25
2018-05-15T10:17:44.346Z,25.25
2018-05-15T10:20:12.614Z,25.60
2018-05-15T10:22:40.886Z,25.34
2018-05-15T10:25:09.154Z,24.61
2018-05-15T10:27:37.461Z,25.06
2018-05-15T10:30:05.763Z,24.08
2018-05-15T10:32:34.019Z,24.76
2018-05-15T10:35:02.290Z,24.65
2018-05-15T10:37:30.587Z,24.62
2018-05-15T10:39:58.862Z,24.60
2018-05-15T10:42:27.146Z,24.68
2018-05-15T10:44:55.458Z,24.56
2018-05-15T10:47:23.727Z,25.23
2018-05-15T10:49:52.014Z,25.06
2018-05-15T10:52:20.270Z,24.98
2018-05-15T10:54:48.558Z,25.29
2018-05-15T10:57:16.826Z,25.41
2018-05-15T10:59:45.108Z,24.95
2018-05-15T11:02:13.382Z,25.10
2018-05-15T11:04:41.658Z,24.88
2018-05-15T11:07:09.940Z,24.23
2018-05-15T11:09:38.218Z,24.11
2018-05-15T11:12:06.495Z,23.94
2018-05-15T11:14:34.770Z,23.91
2018-05-15T11:17:03.061Z,23.86
2018-05-15T11:19:43.121Z,23.84
2018-05-15T11:22:23.101Z,24.27
2018-05-15T11:24:52.310Z,24.23
2018-05-15T11:27:20.584Z,24.57
2018-05-15T11:29:48.871Z,24.49
2018-05-15T11:32:17.149Z,24.85
2018-05-15T11:34:45.418Z,25.15
2018-05-15T11:37:13.708Z,25.28
2018-05-15T11:39:41.983Z,25.28
2018-05-15T11:42:10.282Z,24.92
2018-05-15T11:44:38.558Z,25.04
2018-05-15T11:47:06.838Z,24.55
2018-05-15T11:49:35.675Z,25.72
2018-05-15T11:52:04.096Z,25.61
2018-05-15T11:54:31.659Z,25.19
2018-05-15T11:56:59.938Z,24.75
2018-05-15T11:59:28.234Z,24.60
2018-05-15T12:01:56.518Z,24.79
2018-05-15T12:04:24.790Z,24.86
2018-05-15T12:06:53.307Z,24.57
2018-05-15T12:09:21.571Z,24.40
2018-05-15T12:11:49.858Z,24.29
2018-05-15T12:14:18.130Z,24.74
2018-05-15T12:16:46.402Z,25.01
2018-05-15T12:19:14.678Z,25.41
2018-05-15T12:21:42.949Z,25.57
2018-05-15T12:24:11.230Z,25.15
2018-05-15T12:26:39.494Z,25.61
2018-05-15T12:29:07.774Z,25.66
2018-05-15T12:31:36.039Z,25.95
2018-05-15T12:34:04.314Z,25.54
2018-05-15T12:36:32.587Z,26.29
2018-05-15T12:39:01.594Z,25.06
2018-05-15T12:41:29.879Z,25.35
2018-05-15T12:43:58.138Z,25.61
2018-05-15T12:46:26.432Z,24.68
2018-05-15T12:48:55.218Z,24.51
2018-05-15T12:51:23.650Z,24.02
2018-05-15T12:53:51.945Z,24.31
2018-05-15T12:56:20.265Z,25.02
2018-05-15T12:58:48.642Z,25.42
2018-05-15T13:01:16.958Z,25.70
2018-05-15T13:03:45.223Z,25.75
2018-05-15T13:06:13.506Z,26.23
2018-05-15T13:08:41.781Z,26.10
2018-05-15T13:11:10.061Z,26.40
2018-05-15T13:13:38.339Z,26.49
2018-05-15T13:16:06.611Z,26.83
2018-05-15T13:18:34.958Z,26.38
2018-05-15T13:21:03.162Z,25.78
2018-05-15T13:23:31.438Z,25.40
2018-05-15T13:25:59.722Z,24.52
2018-05-15T13:28:28.007Z,25.02
2018-05-15T13:30:56.286Z,24.98
2018-05-15T13:33:24.550Z,24.88
2018-05-15T13:35:53.077Z,24.81
2018-05-15T13:38:21.666Z,24.49
2018-05-15T13:40:50.307Z,24.48
2018-05-15T13:43:18.896Z,24.36
2018-05-15T13:45:47.238Z,24.21
2018-05-15T13:48:15.515Z,24.15
2018-05-15T13:50:43.801Z,24.21
2018-05-15T13:53:12.078Z,24.27
2018-05-15T13:55:40.352Z,24.27
2018-05-15T13:58:08.627Z,24.51
2018-05-15T14:00:36.910Z,24.87
2018-05-15T14:03:05.191Z,25.40
2018-05-15T14:05:33.463Z,25.58
2018-05-15T14:08:01.738Z,25.39
2018-05-15T14:10:30.007Z,25.51
2018-05-15T14:12:58.302Z,25.54
2018-05-15T14:15:26.578Z,25.51
2018-05-15T14:17:54.886Z,25.75
2018-05-15T14:20:23.156Z,25.67
2018-05-15T14:22:51.434Z,25.74
2018-05-15T14:25:19.708Z,26.17
2018-05-15T14:27:47.986Z,26.24
2018-05-15T14:30:16.250Z,26.04
2018-05-15T14:32:44.521Z,26.08
2018-05-15T14:35:12.802Z,25.94
2018-05-15T14:37:41.077Z,25.82
2018-05-15T14:40:09.358Z,25.83
2018-05-15T14:42:49.559Z,25.72
2018-05-15T14:45:17.843Z,26.14
2018-05-15T14:47:46.114Z,26.03
2018-05-15T14:50:14.393Z,26.16
2018-05-15T14:52:42.658Z,26.18
2018-05-15T14:55:10.954Z,25.92
2018-05-15T14:57:39.230Z,25.37
2018-05-15T15:00:07.518Z,25.42
2018-05-15T15:02:35.790Z,25.03
2018-05-15T15:05:04.086Z,24.96
2018-05-15T15:07:32.358Z,24.66
2018-05-15T15:10:00.624Z,24.59
2018-05-15T15:12:28.897Z,24.45
2018-05-15T15:14:57.170Z,24.47
2018-05-15T15:17:25.462Z,24.33
2018-05-15T15:19:53.727Z,24.47
2018-05-15T15:22:22.016Z,24.58
2018-05-15T15:24:50.301Z,24.87
2018-05-15T15:27:18.578Z,25.20
2018-05-15T15:29:46.849Z,25.52
2018-05-15T15:32:15.130Z,25.52
2018-05-15T15:34:43.406Z,25.25
2018-05-15T15:37:11.682Z,25.38
2018-05-15T15:39:39.966Z,25.37
2018-05-15T15:42:08.246Z,25.46
2018-05-15T15:44:36.521Z,25.53
2018-05-15T15:47:04.819Z,25.31
2018-05-15T15:49:33.091Z,25.43
2018-05-15T15:52:01.378Z,25.44
2018-05-15T15:54:29.646Z,25.43
2018-05-15T15:56:57.915Z,25.21
2018-05-15T15:59:26.194Z,25.30
2018-05-15T16:01:54.482Z,25.19
2018-05-15T16:04:22.763Z,25.20
2018-05-15T16:06:51.030Z,25.00
2018-05-15T16:09:19.310Z,25.00
2018-05-15T16:11:47.578Z,24.74
2018-05-15T16:14:15.853Z,24.69
2018-05-15T16:16:44.126Z,24.57
2018-05-15T16:19:12.399Z,24.63
2018-05-15T16:21:40.676Z,24.54
2018-05-15T16:24:08.951Z,24.50
2018-05-15T16:26:37.227Z,24.42
2018-05-15T16:29:05.522Z,24.31
2018-05-15T16:31:33.790Z,24.34
2018-05-15T16:34:02.070Z,24.26
2018-05-15T16:36:30.346Z,24.20
2018-05-15T16:38:58.618Z,24.28
2018-05-15T16:41:26.902Z,24.37
2018-05-15T16:43:55.218Z,24.30
2018-05-15T16:46:23.507Z,24.30
2018-05-15T16:48:51.769Z,24.49
2018-05-15T16:51:20.053Z,24.38
2018-05-15T16:53:49.010Z,24.28
2018-05-15T16:56:17.898Z,24.27
2018-05-15T16:58:46.224Z,24.27
2018-05-15T17:01:14.518Z,24.27
2018-05-15T17:03:42.794Z,24.32
2018-05-15T17:06:11.134Z,24.16
2018-05-15T17:08:39.400Z,24.28
2018-05-15T17:11:08.654Z,24.35
2018-05-15T17:13:37.003Z,24.29
2018-05-15T17:16:05.194Z,24.33
2018-05-15T17:18:33.474Z,24.23
2018-05-15T17:21:01.749Z,24.32
2018-05-15T17:23:30.026Z,24.13
2018-05-15T17:25:58.313Z,24.03
2018-05-15T17:28:26.586Z,23.82
2018-05-15T17:30:54.858Z,23.88
2018-05-15T17:33:23.134Z,23.96
2018-05-15T17:35:58.381Z,24.07
2018-05-15T17:38:26.655Z,24.13
2018-05-15T17:40:55.022Z,24.09
2018-05-15T17:43:23.302Z,23.93
2018-05-15T17:45:51.579Z,23.88
2018-05-15T17:48:19.882Z,23.93
2018-05-15T17:50:48.150Z,24.00
2018-05-15T17:53:16.426Z,23.95
2018-05-15T17:55:44.737Z,23.90
2018-05-15T17:58:13.002Z,23.84
2018-05-15T18:00:41.283Z,23.79
2018-05-15T18:03:09.555Z,23.74
2018-05-15T18:05:37.830Z,23.50
2018-05-15T18:08:06.121Z,23.66
2018-05-15T18:10:34.395Z,23.55
2018-05-15T18:13:02.698Z,23.56
2018-05-15T18:15:30.979Z,23.37
2018-05-15T18:17:59.594Z,23.37
2018-05-15T18:20:27.870Z,23.30
2018-05-15T18:22:56.142Z,23.24
2018-05-15T18:25:24.457Z,23.09
2018-05-15T18:27:52.694Z,23.20
2018-05-15T18:30:21.018Z,23.14
2018-05-15T18:32:49.395Z,23.15
2018-05-15T18:35:17.594Z,23.15
2018-05-15T18:37:45.874Z,23.13
2018-05-15T18:40:14.160Z,23.12
2018-05-15T18:42:42.434Z,23.15
2018-05-15T18:45:11.318Z,23.06
2018-05-15T18:47:39.669Z,22.99
2018-05-15T18:50:07.966Z,22.92
2018-05-15T18:52:36.234Z,22.76
2018-05-15T18:55:04.505Z,22.88
2018-05-15T18:57:32.786Z,22.78
2018-05-15T19:00:01.058Z,22.75
2018-05-15T19:02:29.334Z,22.76
2018-05-15T19:04:57.607Z,22.74
2018-05-15T19:07:25.890Z,22.67
2018-05-15T19:09:54.162Z,22.69
2018-05-15T19:12:22.438Z,22.60
2018-05-15T19:14:50.713Z,22.59
2018-05-15T19:17:19.002Z,22.56
2018-05-15T19:19:47.278Z,22.13
2018-05-15T19:22:15.560Z,22.16
2018-05-15T19:24:43.830Z,22.23
2018-05-15T19:27:12.135Z,22.24
2018-05-15T19:29:40.585Z,22.04
2018-05-15T19:32:14.477Z,22.04
2018-05-15T19:34:48.271Z,22.02
2018-05-15T19:37:16.574Z,22.01
2018-05-15T19:39:44.935Z,22.09
2018-05-15T19:42:13.113Z,22.07
2018-05-15T19:44:41.390Z,22.00
2018-05-15T19:47:09.663Z,21.98
2018-05-15T19:49:37.942Z,21.90
2018-05-15T19:52:06.920Z,21.89
2018-05-15T19:54:35.286Z,21.77
2018-05-15T19:57:03.643Z,21.83
2018-05-15T19:59:31.922Z,21.89
2018-05-15T20:02:00.255Z,21.74
2018-05-15T20:04:28.492Z,21.71
2018-05-15T20:06:56.769Z,21.56
2018-05-15T20:09:25.058Z,21.60
2018-05-15T20:11:53.310Z,21.61
2018-05-15T20:14:21.616Z,21.47
2018-05-15T20:16:49.862Z,21.22
2018-05-15T20:19:18.143Z,21.14
2018-05-15T20:21:46.418Z,20.83
2018-05-15T20:24:14.689Z,21.16
2018-05-15T20:26:42.971Z,20.93
2018-05-15T20:29:11.249Z,21.11
2018-05-15T20:31:39.529Z,21.06
2018-05-15T20:34:07.805Z,20.95
2018-05-15T20:36:36.100Z,20.94
2018-05-15T20:39:04.367Z,20.98
2018-05-15T20:41:33.630Z,21.01
2018-05-15T20:44:01.897Z,20.89
2018-05-15T20:46:30.174Z,20.80
2018-05-15T20:48:58.446Z,20.81
2018-05-15T20:51:26.738Z,20.89
2018-05-15T20:53:55.014Z,20.82
2018-05-15T20:56:23.304Z,20.74
2018-05-15T20:58:51.573Z,20.75
2018-05-15T21:01:19.862Z,20.59
2018-05-15T21:03:48.143Z,20.14
2018-05-15T21:06:16.414Z,20.57
2018-05-15T21:08:44.694Z,20.53
2018-05-15T21:11:12.962Z,20.10
2018-05-15T21:13:41.245Z,20.00
2018-05-15T21:16:09.510Z,20.22
2018-05-15T21:18:37.809Z,20.08
2018-05-15T21:21:06.091Z,20.16
2018-05-15T21:23:34.380Z,20.20
2018-05-15T21:26:02.658Z,19.86
2018-05-15T21:28:30.942Z,19.94
2018-05-15T21:30:59.209Z,19.60
2018-05-15T21:33:27.835Z,19.29
2018-05-15T21:35:56.070Z,19.31
2018-05-15T21:38:24.346Z,19.60
2018-05-15T21:40:52.635Z,19.20
2018-05-15T21:43:20.910Z,19.11
2018-05-15T21:45:49.199Z,19.12
2018-05-15T21:48:17.482Z,19.53
2018-05-15T21:50:45.750Z,19.32
2018-05-15T21:53:14.054Z,19.38
2018-05-15T21:55:42.335Z,19.27
2018-05-15T21:58:10.619Z,18.84
2018-05-15T22:00:38.902Z,18.92
2018-05-15T22:03:07.193Z,19.04
2018-05-15T22:05:35.478Z,19.00
2018-05-15T22:08:03.781Z,18.91
2018-05-15T22:10:32.058Z,19.07
2018-05-15T22:13:12.330Z,18.92
2018-05-15T22:15:58.311Z,18.84
2018-05-15T22:18:44.484Z,18.79
2018-05-15T22:21:30.414Z,18.84
2018-05-15T22:24:04.042Z,18.65
2018-05-15T22:26:32.338Z,18.65
2018-05-15T22:29:00.607Z,18.63
2018-05-15T22:31:28.895Z,18.88
2018-05-15T22:33:57.166Z,18.63
2018-05-15T22:36:25.466Z,18.72
2018-05-15T22:38:53.730Z,18.68
2018-05-15T22:41:21.998Z,18.59
2018-05-15T22:43:50.278Z,18.80
2018-05-15T22:46:18.554Z,18.72
2018-05-15T22:48:46.842Z,18.76
2018-05-15T22:51:15.126Z,18.54
2018-05-15T22:53:43.405Z,18.66
2018-05-15T22:56:11.694Z,18.70
2018-05-15T22:58:39.979Z,18.52
2018-05-15T23:01:08.257Z,18.63
2018-05-15T23:03:36.562Z,18.45
2018-05-15T23:06:04.835Z,18.46
2018-05-15T23:08:33.111Z,18.73
2018-05-15T23:11:01.389Z,18.49
2018-05-15T23:13:29.675Z,18.33
2018-05-15T23:15:58.071Z,18.29
2018-05-15T23:18:26.350Z,18.41
2018-05-15T23:20:54.672Z,18.38
2018-05-15T23:23:22.907Z,18.36
2018-05-15T23:25:51.186Z,18.45
2018-05-15T23:28:19.454Z,18.50
2018-05-15T23:30:47.738Z,18.46
2018-05-15T23:33:16.010Z,18.49
2018-05-15T23:35:44.286Z,18.45
2018-05-15T23:38:12.562Z,18.52
2018-05-15T23:40:40.842Z,18.37
2018-05-15T23:43:09.123Z,18.61
2018-05-15T23:45:37.387Z,18.52
2018-05-15T23:48:05.670Z,18.47
2018-05-15T23:50:33.942Z,18.23
2018-05-15T23:53:02.222Z,18.20
2018-05-15T23:55:30.489Z,18.47
2018-05-15T23:57:58.778Z,18.06
